sensor_id;sensor_type;location;lat;lon;timestamp;P1;durP1;ratioP1;P2;durP2;ratioP2
18748;SDS011;9503;53.560;10.246;2022-12-10T00:00:03;58.37;;;20.83;;
18748;SDS011;9503;53.560;10.246;2022-12-10T00:02:30;59.40;;;19.87;;
18748;SDS011;9503;53.560;10.246;2022-12-10T00:04:57;67.23;;;21.83;;
18748;SDS011;9503;53.560;10.246;2022-12-10T00:07:25;72.03;;;21.43;;
18748;SDS011;9503;53.560;10.246;2022-12-10T00:09:52;67.27;;;21.97;;
18748;SDS011;9503;53.560;10.246;2022-12-10T00:12:18;68.90;;;22.63;;
18748;SDS011;9503;53.560;10.246;2022-12-10T00:14:45;74.80;;;21.77;;
18748;SDS011;9503;53.560;10.246;2022-12-10T00:17:11;76.67;;;22.73;;
18748;SDS011;9503;53.560;10.246;2022-12-10T00:19:38;67.37;;;21.47;;
18748;SDS011;9503;53.560;10.246;2022-12-10T00:22:04;64.60;;;21.13;;
18748;SDS011;9503;53.560;10.246;2022-12-10T00:24:32;64.50;;;20.97;;
18748;SDS011;9503;53.560;10.246;2022-12-10T00:26:59;70.13;;;20.67;;
18748;SDS011;9503;53.560;10.246;2022-12-10T00:29:26;65.13;;;20.07;;
18748;SDS011;9503;53.560;10.246;2022-12-10T00:31:53;67.63;;;20.40;;
18748;SDS011;9503;53.560;10.246;2022-12-10T00:34:19;59.30;;;20.33;;
18748;SDS011;9503;53.560;10.246;2022-12-10T00:36:46;62.63;;;20.17;;
18748;SDS011;9503;53.560;10.246;2022-12-10T00:39:15;60.23;;;19.13;;
18748;SDS011;9503;53.560;10.246;2022-12-10T00:41:44;54.93;;;18.70;;
18748;SDS011;9503;53.560;10.246;2022-12-10T00:44:11;59.10;;;18.93;;
18748;SDS011;9503;53.560;10.246;2022-12-10T00:46:38;63.53;;;20.07;;
18748;SDS011;9503;53.560;10.246;2022-12-10T00:49:05;57.33;;;19.00;;
18748;SDS011;9503;53.560;10.246;2022-12-10T00:51:31;53.20;;;18.00;;
18748;SDS011;9503;53.560;10.246;2022-12-10T00:53:58;58.43;;;18.03;;
18748;SDS011;9503;53.560;10.246;2022-12-10T00:56:26;55.47;;;18.40;;
18748;SDS011;9503;53.560;10.246;2022-12-10T00:58:55;55.13;;;18.00;;
18748;SDS011;9503;53.560;10.246;2022-12-10T01:01:23;57.33;;;19.80;;
18748;SDS011;9503;53.560;10.246;2022-12-10T01:03:53;60.77;;;18.77;;
18748;SDS011;9503;53.560;10.246;2022-12-10T01:06:21;56.77;;;18.17;;
18748;SDS011;9503;53.560;10.246;2022-12-10T01:08:50;57.20;;;19.20;;
18748;SDS011;9503;53.560;10.246;2022-12-10T01:11:19;58.40;;;18.00;;
18748;SDS011;9503;53.560;10.246;2022-12-10T01:13:47;58.63;;;18.00;;
18748;SDS011;9503;53.560;10.246;2022-12-10T01:16:17;56.20;;;18.33;;
18748;SDS011;9503;53.560;10.246;2022-12-10T01:18:45;56.17;;;17.93;;
18748;SDS011;9503;53.560;10.246;2022-12-10T01:21:14;54.33;;;17.43;;
18748;SDS011;9503;53.560;10.246;2022-12-10T01:23:42;57.50;;;17.40;;
18748;SDS011;9503;53.560;10.246;2022-12-10T01:26:11;57.57;;;18.40;;
18748;SDS011;9503;53.560;10.246;2022-12-10T01:28:39;53.57;;;16.37;;
18748;SDS011;9503;53.560;10.246;2022-12-10T01:31:07;59.07;;;16.50;;
18748;SDS011;9503;53.560;10.246;2022-12-10T01:33:37;55.03;;;17.03;;
18748;SDS011;9503;53.560;10.246;2022-12-10T01:36:05;56.23;;;16.03;;
18748;SDS011;9503;53.560;10.246;2022-12-10T01:38:34;52.30;;;16.80;;
18748;SDS011;9503;53.560;10.246;2022-12-10T01:41:01;51.90;;;16.40;;
18748;SDS011;9503;53.560;10.246;2022-12-10T01:43:29;47.47;;;17.83;;
18748;SDS011;9503;53.560;10.246;2022-12-10T01:46:14;52.70;;;16.03;;
18748;SDS011;9503;53.560;10.246;2022-12-10T01:48:42;46.20;;;16.10;;
18748;SDS011;9503;53.560;10.246;2022-12-10T01:51:09;49.97;;;16.93;;
18748;SDS011;9503;53.560;10.246;2022-12-10T01:53:37;42.93;;;15.10;;
18748;SDS011;9503;53.560;10.246;2022-12-10T01:56:04;48.20;;;16.33;;
18748;SDS011;9503;53.560;10.246;2022-12-10T01:58:30;46.77;;;15.63;;
18748;SDS011;9503;53.560;10.246;2022-12-10T02:01:02;42.60;;;15.67;;
18748;SDS011;9503;53.560;10.246;2022-12-10T02:03:35;37.77;;;14.60;;
18748;SDS011;9503;53.560;10.246;2022-12-10T02:06:13;45.27;;;15.20;;
18748;SDS011;9503;53.560;10.246;2022-12-10T02:08:51;49.53;;;15.07;;
18748;SDS011;9503;53.560;10.246;2022-12-10T02:11:29;46.33;;;14.90;;
18748;SDS011;9503;53.560;10.246;2022-12-10T02:14:00;48.47;;;15.87;;
18748;SDS011;9503;53.560;10.246;2022-12-10T02:16:31;42.73;;;14.13;;
18748;SDS011;9503;53.560;10.246;2022-12-10T02:19:03;41.07;;;15.73;;
18748;SDS011;9503;53.560;10.246;2022-12-10T02:21:40;41.33;;;14.23;;
18748;SDS011;9503;53.560;10.246;2022-12-10T02:24:10;42.77;;;15.23;;
18748;SDS011;9503;53.560;10.246;2022-12-10T02:26:42;47.87;;;15.73;;
18748;SDS011;9503;53.560;10.246;2022-12-10T02:29:13;40.13;;;14.30;;
18748;SDS011;9503;53.560;10.246;2022-12-10T02:31:44;39.73;;;12.57;;
18748;SDS011;9503;53.560;10.246;2022-12-10T02:34:14;30.63;;;11.70;;
18748;SDS011;9503;53.560;10.246;2022-12-10T02:36:43;32.97;;;12.90;;
18748;SDS011;9503;53.560;10.246;2022-12-10T02:39:13;28.20;;;10.83;;
18748;SDS011;9503;53.560;10.246;2022-12-10T02:41:45;30.37;;;11.73;;
18748;SDS011;9503;53.560;10.246;2022-12-10T02:44:17;28.37;;;12.10;;
18748;SDS011;9503;53.560;10.246;2022-12-10T02:46:46;18.53;;;9.20;;
18748;SDS011;9503;53.560;10.246;2022-12-10T02:49:15;13.20;;;6.33;;
18748;SDS011;9503;53.560;10.246;2022-12-10T02:51:43;17.97;;;8.60;;
18748;SDS011;9503;53.560;10.246;2022-12-10T02:57:03;14.53;;;7.77;;
18748;SDS011;9503;53.560;10.246;2022-12-10T02:59:57;14.63;;;7.73;;
18748;SDS011;9503;53.560;10.246;2022-12-10T03:02:32;19.00;;;8.60;;
18748;SDS011;9503;53.560;10.246;2022-12-10T03:05:09;20.87;;;8.77;;
18748;SDS011;9503;53.560;10.246;2022-12-10T03:07:44;15.80;;;7.77;;
18748;SDS011;9503;53.560;10.246;2022-12-10T03:10:17;18.53;;;7.27;;
18748;SDS011;9503;53.560;10.246;2022-12-10T03:12:51;17.67;;;8.23;;
18748;SDS011;9503;53.560;10.246;2022-12-10T03:15:25;17.53;;;8.50;;
18748;SDS011;9503;53.560;10.246;2022-12-10T03:17:53;17.13;;;7.37;;
18748;SDS011;9503;53.560;10.246;2022-12-10T03:20:21;16.57;;;8.30;;
18748;SDS011;9503;53.560;10.246;2022-12-10T03:22:51;16.73;;;7.90;;
18748;SDS011;9503;53.560;10.246;2022-12-10T03:25:19;14.97;;;7.27;;
18748;SDS011;9503;53.560;10.246;2022-12-10T03:27:50;17.63;;;8.07;;
18748;SDS011;9503;53.560;10.246;2022-12-10T03:30:21;13.43;;;7.37;;
18748;SDS011;9503;53.560;10.246;2022-12-10T03:32:49;15.23;;;6.90;;
18748;SDS011;9503;53.560;10.246;2022-12-10T03:35:17;15.13;;;6.97;;
18748;SDS011;9503;53.560;10.246;2022-12-10T03:37:46;16.27;;;7.30;;
18748;SDS011;9503;53.560;10.246;2022-12-10T03:40:14;16.50;;;8.57;;
18748;SDS011;9503;53.560;10.246;2022-12-10T03:42:44;17.97;;;7.37;;
18748;SDS011;9503;53.560;10.246;2022-12-10T03:45:10;16.53;;;8.20;;
18748;SDS011;9503;53.560;10.246;2022-12-10T03:47:37;14.50;;;7.33;;
18748;SDS011;9503;53.560;10.246;2022-12-10T03:50:05;14.30;;;7.33;;
18748;SDS011;9503;53.560;10.246;2022-12-10T03:52:32;16.63;;;6.93;;
18748;SDS011;9503;53.560;10.246;2022-12-10T03:54:59;15.23;;;7.33;;
18748;SDS011;9503;53.560;10.246;2022-12-10T03:57:26;18.00;;;7.63;;
18748;SDS011;9503;53.560;10.246;2022-12-10T03:59:52;17.30;;;8.07;;
18748;SDS011;9503;53.560;10.246;2022-12-10T04:02:19;18.70;;;8.97;;
18748;SDS011;9503;53.560;10.246;2022-12-10T04:04:46;19.13;;;7.60;;
18748;SDS011;9503;53.560;10.246;2022-12-10T04:07:14;17.83;;;8.50;;
18748;SDS011;9503;53.560;10.246;2022-12-10T04:09:40;19.00;;;7.67;;
18748;SDS011;9503;53.560;10.246;2022-12-10T04:12:07;15.73;;;7.40;;
18748;SDS011;9503;53.560;10.246;2022-12-10T04:14:35;18.93;;;8.00;;
18748;SDS011;9503;53.560;10.246;2022-12-10T04:17:19;14.93;;;7.77;;
18748;SDS011;9503;53.560;10.246;2022-12-10T04:19:46;17.73;;;8.27;;
18748;SDS011;9503;53.560;10.246;2022-12-10T04:22:14;18.77;;;8.07;;
18748;SDS011;9503;53.560;10.246;2022-12-10T04:24:58;18.23;;;8.30;;
18748;SDS011;9503;53.560;10.246;2022-12-10T04:27:42;21.23;;;8.00;;
18748;SDS011;9503;53.560;10.246;2022-12-10T04:30:10;19.53;;;8.70;;
18748;SDS011;9503;53.560;10.246;2022-12-10T04:32:38;18.10;;;8.57;;
18748;SDS011;9503;53.560;10.246;2022-12-10T04:35:05;16.47;;;8.00;;
18748;SDS011;9503;53.560;10.246;2022-12-10T04:37:33;19.20;;;7.90;;
18748;SDS011;9503;53.560;10.246;2022-12-10T04:40:00;22.37;;;8.63;;
18748;SDS011;9503;53.560;10.246;2022-12-10T04:42:27;19.07;;;8.47;;
18748;SDS011;9503;53.560;10.246;2022-12-10T04:44:54;18.83;;;8.27;;
18748;SDS011;9503;53.560;10.246;2022-12-10T04:47:20;19.50;;;9.70;;
18748;SDS011;9503;53.560;10.246;2022-12-10T04:49:47;21.97;;;10.47;;
18748;SDS011;9503;53.560;10.246;2022-12-10T04:52:14;21.43;;;8.80;;
18748;SDS011;9503;53.560;10.246;2022-12-10T04:54:43;19.57;;;9.47;;
18748;SDS011;9503;53.560;10.246;2022-12-10T04:57:10;17.40;;;9.37;;
18748;SDS011;9503;53.560;10.246;2022-12-10T04:59:37;19.60;;;9.07;;
18748;SDS011;9503;53.560;10.246;2022-12-10T05:02:04;17.70;;;8.40;;
18748;SDS011;9503;53.560;10.246;2022-12-10T05:04:31;17.73;;;8.53;;
18748;SDS011;9503;53.560;10.246;2022-12-10T05:06:58;17.10;;;8.13;;
18748;SDS011;9503;53.560;10.246;2022-12-10T05:09:25;16.60;;;7.83;;
18748;SDS011;9503;53.560;10.246;2022-12-10T05:11:53;21.40;;;9.07;;
18748;SDS011;9503;53.560;10.246;2022-12-10T05:14:19;16.47;;;7.10;;
18748;SDS011;9503;53.560;10.246;2022-12-10T05:16:48;17.80;;;8.00;;
18748;SDS011;9503;53.560;10.246;2022-12-10T05:19:15;14.73;;;7.13;;
18748;SDS011;9503;53.560;10.246;2022-12-10T05:21:44;14.17;;;7.13;;
18748;SDS011;9503;53.560;10.246;2022-12-10T05:24:28;17.80;;;7.80;;
18748;SDS011;9503;53.560;10.246;2022-12-10T05:26:57;17.57;;;8.40;;
18748;SDS011;9503;53.560;10.246;2022-12-10T05:29:24;15.13;;;7.60;;
18748;SDS011;9503;53.560;10.246;2022-12-10T05:31:51;19.57;;;8.77;;
18748;SDS011;9503;53.560;10.246;2022-12-10T05:34:17;15.77;;;7.40;;
18748;SDS011;9503;53.560;10.246;2022-12-10T05:36:44;18.10;;;8.83;;
18748;SDS011;9503;53.560;10.246;2022-12-10T05:39:11;17.30;;;8.00;;
18748;SDS011;9503;53.560;10.246;2022-12-10T05:41:38;19.93;;;9.00;;
18748;SDS011;9503;53.560;10.246;2022-12-10T05:44:07;14.93;;;8.07;;
18748;SDS011;9503;53.560;10.246;2022-12-10T05:46:35;16.07;;;7.57;;
18748;SDS011;9503;53.560;10.246;2022-12-10T05:49:02;16.83;;;7.03;;
18748;SDS011;9503;53.560;10.246;2022-12-10T05:51:31;14.77;;;7.73;;
18748;SDS011;9503;53.560;10.246;2022-12-10T05:53:59;15.13;;;7.10;;
18748;SDS011;9503;53.560;10.246;2022-12-10T05:56:28;16.03;;;8.50;;
18748;SDS011;9503;53.560;10.246;2022-12-10T05:58:57;17.40;;;8.53;;
18748;SDS011;9503;53.560;10.246;2022-12-10T06:01:27;13.43;;;7.50;;
18748;SDS011;9503;53.560;10.246;2022-12-10T06:03:56;16.00;;;8.00;;
18748;SDS011;9503;53.560;10.246;2022-12-10T06:06:24;16.70;;;9.00;;
18748;SDS011;9503;53.560;10.246;2022-12-10T06:08:52;16.10;;;8.20;;
18748;SDS011;9503;53.560;10.246;2022-12-10T06:11:19;15.37;;;8.20;;
18748;SDS011;9503;53.560;10.246;2022-12-10T06:13:46;15.20;;;7.70;;
18748;SDS011;9503;53.560;10.246;2022-12-10T06:16:13;17.17;;;8.40;;
18748;SDS011;9503;53.560;10.246;2022-12-10T06:18:42;15.63;;;7.90;;
18748;SDS011;9503;53.560;10.246;2022-12-10T06:21:09;18.03;;;9.07;;
18748;SDS011;9503;53.560;10.246;2022-12-10T06:23:38;18.40;;;9.70;;
18748;SDS011;9503;53.560;10.246;2022-12-10T06:26:06;18.20;;;8.53;;
18748;SDS011;9503;53.560;10.246;2022-12-10T06:28:34;19.03;;;8.47;;
18748;SDS011;9503;53.560;10.246;2022-12-10T06:31:01;20.23;;;10.17;;
18748;SDS011;9503;53.560;10.246;2022-12-10T06:33:27;18.60;;;8.43;;
18748;SDS011;9503;53.560;10.246;2022-12-10T06:35:55;24.30;;;9.87;;
18748;SDS011;9503;53.560;10.246;2022-12-10T06:38:22;24.20;;;10.70;;
18748;SDS011;9503;53.560;10.246;2022-12-10T06:40:49;26.07;;;10.10;;
18748;SDS011;9503;53.560;10.246;2022-12-10T06:43:16;24.80;;;10.70;;
18748;SDS011;9503;53.560;10.246;2022-12-10T06:45:43;25.57;;;10.13;;
18748;SDS011;9503;53.560;10.246;2022-12-10T06:48:09;21.83;;;9.50;;
18748;SDS011;9503;53.560;10.246;2022-12-10T06:50:36;20.83;;;10.03;;
18748;SDS011;9503;53.560;10.246;2022-12-10T06:53:04;21.60;;;9.90;;
18748;SDS011;9503;53.560;10.246;2022-12-10T06:55:31;23.87;;;9.23;;
18748;SDS011;9503;53.560;10.246;2022-12-10T06:57:57;22.70;;;9.63;;
18748;SDS011;9503;53.560;10.246;2022-12-10T07:00:24;24.90;;;10.13;;
18748;SDS011;9503;53.560;10.246;2022-12-10T07:02:51;23.30;;;9.23;;
18748;SDS011;9503;53.560;10.246;2022-12-10T07:05:17;22.63;;;9.97;;
18748;SDS011;9503;53.560;10.246;2022-12-10T07:07:44;24.23;;;10.13;;
18748;SDS011;9503;53.560;10.246;2022-12-10T07:10:12;22.43;;;9.53;;
18748;SDS011;9503;53.560;10.246;2022-12-10T07:12:39;20.87;;;9.47;;
18748;SDS011;9503;53.560;10.246;2022-12-10T07:15:06;22.27;;;9.90;;
18748;SDS011;9503;53.560;10.246;2022-12-10T07:17:33;23.93;;;11.00;;
18748;SDS011;9503;53.560;10.246;2022-12-10T07:19:59;24.40;;;10.80;;
18748;SDS011;9503;53.560;10.246;2022-12-10T07:22:27;25.40;;;10.53;;
18748;SDS011;9503;53.560;10.246;2022-12-10T07:24:54;24.50;;;12.13;;
18748;SDS011;9503;53.560;10.246;2022-12-10T07:27:22;23.80;;;9.43;;
18748;SDS011;9503;53.560;10.246;2022-12-10T07:29:48;20.53;;;9.40;;
18748;SDS011;9503;53.560;10.246;2022-12-10T07:32:15;18.30;;;9.20;;
18748;SDS011;9503;53.560;10.246;2022-12-10T07:34:42;18.93;;;8.87;;
18748;SDS011;9503;53.560;10.246;2022-12-10T07:37:09;24.60;;;10.03;;
18748;SDS011;9503;53.560;10.246;2022-12-10T07:39:35;20.27;;;9.77;;
18748;SDS011;9503;53.560;10.246;2022-12-10T07:42:02;27.30;;;11.43;;
18748;SDS011;9503;53.560;10.246;2022-12-10T07:44:30;24.77;;;10.37;;
18748;SDS011;9503;53.560;10.246;2022-12-10T07:46:57;22.83;;;9.70;;
18748;SDS011;9503;53.560;10.246;2022-12-10T07:49:24;20.23;;;10.57;;
18748;SDS011;9503;53.560;10.246;2022-12-10T07:51:50;23.87;;;10.77;;
18748;SDS011;9503;53.560;10.246;2022-12-10T07:54:17;18.07;;;8.47;;
18748;SDS011;9503;53.560;10.246;2022-12-10T07:56:45;22.00;;;9.37;;
18748;SDS011;9503;53.560;10.246;2022-12-10T07:59:11;19.07;;;9.50;;
18748;SDS011;9503;53.560;10.246;2022-12-10T08:01:39;18.77;;;8.23;;
18748;SDS011;9503;53.560;10.246;2022-12-10T08:04:07;17.00;;;8.30;;
18748;SDS011;9503;53.560;10.246;2022-12-10T08:06:33;20.63;;;8.67;;
18748;SDS011;9503;53.560;10.246;2022-12-10T08:09:00;16.77;;;7.93;;
18748;SDS011;9503;53.560;10.246;2022-12-10T08:11:27;16.13;;;7.53;;
18748;SDS011;9503;53.560;10.246;2022-12-10T08:13:54;17.93;;;8.10;;
18748;SDS011;9503;53.560;10.246;2022-12-10T08:16:22;21.57;;;8.17;;
18748;SDS011;9503;53.560;10.246;2022-12-10T08:18:51;16.80;;;8.30;;
18748;SDS011;9503;53.560;10.246;2022-12-10T08:21:19;16.90;;;8.67;;
18748;SDS011;9503;53.560;10.246;2022-12-10T08:23:47;15.63;;;9.20;;
18748;SDS011;9503;53.560;10.246;2022-12-10T08:26:14;15.20;;;7.73;;
18748;SDS011;9503;53.560;10.246;2022-12-10T08:28:42;17.60;;;8.57;;
18748;SDS011;9503;53.560;10.246;2022-12-10T08:31:10;16.20;;;7.60;;
18748;SDS011;9503;53.560;10.246;2022-12-10T08:33:37;18.53;;;8.30;;
18748;SDS011;9503;53.560;10.246;2022-12-10T08:36:07;17.00;;;8.27;;
18748;SDS011;9503;53.560;10.246;2022-12-10T08:38:36;18.07;;;7.53;;
18748;SDS011;9503;53.560;10.246;2022-12-10T08:41:05;15.97;;;8.33;;
18748;SDS011;9503;53.560;10.246;2022-12-10T08:43:32;17.60;;;8.13;;
18748;SDS011;9503;53.560;10.246;2022-12-10T08:46:00;19.00;;;8.30;;
18748;SDS011;9503;53.560;10.246;2022-12-10T08:48:26;19.40;;;9.13;;
18748;SDS011;9503;53.560;10.246;2022-12-10T08:50:53;19.50;;;9.03;;
18748;SDS011;9503;53.560;10.246;2022-12-10T08:53:21;15.97;;;7.87;;
18748;SDS011;9503;53.560;10.246;2022-12-10T08:55:49;16.93;;;8.93;;
18748;SDS011;9503;53.560;10.246;2022-12-10T08:58:16;19.07;;;8.93;;
18748;SDS011;9503;53.560;10.246;2022-12-10T09:00:43;15.23;;;7.37;;
18748;SDS011;9503;53.560;10.246;2022-12-10T09:03:10;14.50;;;7.67;;
18748;SDS011;9503;53.560;10.246;2022-12-10T09:05:36;13.57;;;7.93;;
18748;SDS011;9503;53.560;10.246;2022-12-10T09:08:03;19.50;;;8.70;;
18748;SDS011;9503;53.560;10.246;2022-12-10T09:10:31;17.83;;;8.53;;
18748;SDS011;9503;53.560;10.246;2022-12-10T09:12:58;20.13;;;9.53;;
18748;SDS011;9503;53.560;10.246;2022-12-10T09:15:25;19.87;;;9.07;;
18748;SDS011;9503;53.560;10.246;2022-12-10T09:17:51;16.00;;;8.20;;
18748;SDS011;9503;53.560;10.246;2022-12-10T09:20:18;14.57;;;7.50;;
18748;SDS011;9503;53.560;10.246;2022-12-10T09:22:44;16.10;;;8.63;;
18748;SDS011;9503;53.560;10.246;2022-12-10T09:25:11;16.97;;;8.50;;
18748;SDS011;9503;53.560;10.246;2022-12-10T09:27:41;17.83;;;8.30;;
18748;SDS011;9503;53.560;10.246;2022-12-10T09:30:08;15.07;;;7.70;;
18748;SDS011;9503;53.560;10.246;2022-12-10T09:32:37;14.37;;;7.93;;
18748;SDS011;9503;53.560;10.246;2022-12-10T09:35:04;18.77;;;9.60;;
18748;SDS011;9503;53.560;10.246;2022-12-10T09:37:32;18.70;;;9.37;;
18748;SDS011;9503;53.560;10.246;2022-12-10T09:39:58;15.90;;;8.00;;
18748;SDS011;9503;53.560;10.246;2022-12-10T09:42:29;19.83;;;10.60;;
18748;SDS011;9503;53.560;10.246;2022-12-10T09:45:09;22.77;;;11.13;;
18748;SDS011;9503;53.560;10.246;2022-12-10T09:47:45;20.23;;;10.00;;
18748;SDS011;9503;53.560;10.246;2022-12-10T09:50:19;21.33;;;10.27;;
18748;SDS011;9503;53.560;10.246;2022-12-10T09:52:50;23.67;;;10.70;;
18748;SDS011;9503;53.560;10.246;2022-12-10T09:55:20;20.83;;;9.43;;
18748;SDS011;9503;53.560;10.246;2022-12-10T09:57:52;23.53;;;10.83;;
18748;SDS011;9503;53.560;10.246;2022-12-10T10:00:22;20.27;;;10.13;;
18748;SDS011;9503;53.560;10.246;2022-12-10T10:02:51;24.23;;;11.37;;
18748;SDS011;9503;53.560;10.246;2022-12-10T10:05:22;24.97;;;11.50;;
18748;SDS011;9503;53.560;10.246;2022-12-10T10:07:53;24.33;;;10.97;;
18748;SDS011;9503;53.560;10.246;2022-12-10T10:10:22;25.93;;;11.07;;
18748;SDS011;9503;53.560;10.246;2022-12-10T10:12:52;22.63;;;10.93;;
18748;SDS011;9503;53.560;10.246;2022-12-10T10:15:23;29.93;;;12.43;;
18748;SDS011;9503;53.560;10.246;2022-12-10T10:17:52;20.60;;;9.50;;
18748;SDS011;9503;53.560;10.246;2022-12-10T10:20:22;18.47;;;9.40;;
18748;SDS011;9503;53.560;10.246;2022-12-10T10:22:48;19.07;;;9.53;;
18748;SDS011;9503;53.560;10.246;2022-12-10T10:25:16;17.67;;;8.90;;
18748;SDS011;9503;53.560;10.246;2022-12-10T10:27:45;20.20;;;9.73;;
18748;SDS011;9503;53.560;10.246;2022-12-10T10:30:14;19.67;;;9.40;;
18748;SDS011;9503;53.560;10.246;2022-12-10T10:32:48;29.03;;;13.93;;
18748;SDS011;9503;53.560;10.246;2022-12-10T10:35:21;83.03;;;49.93;;
18748;SDS011;9503;53.560;10.246;2022-12-10T10:37:50;35.67;;;19.87;;
18748;SDS011;9503;53.560;10.246;2022-12-10T10:40:22;49.20;;;24.33;;
18748;SDS011;9503;53.560;10.246;2022-12-10T10:42:51;45.33;;;21.70;;
18748;SDS011;9503;53.560;10.246;2022-12-10T10:45:36;51.50;;;24.53;;
18748;SDS011;9503;53.560;10.246;2022-12-10T10:48:09;54.17;;;24.27;;
18748;SDS011;9503;53.560;10.246;2022-12-10T10:50:38;126.80;;;53.80;;
18748;SDS011;9503;53.560;10.246;2022-12-10T10:53:23;23.10;;;12.53;;
18748;SDS011;9503;53.560;10.246;2022-12-10T10:55:56;30.40;;;18.33;;
18748;SDS011;9503;53.560;10.246;2022-12-10T10:58:25;17.63;;;9.83;;
18748;SDS011;9503;53.560;10.246;2022-12-10T11:00:57;20.33;;;9.93;;
18748;SDS011;9503;53.560;10.246;2022-12-10T11:03:28;18.83;;;9.93;;
18748;SDS011;9503;53.560;10.246;2022-12-10T11:05:56;17.13;;;9.03;;
18748;SDS011;9503;53.560;10.246;2022-12-10T11:08:24;18.03;;;8.67;;
18748;SDS011;9503;53.560;10.246;2022-12-10T11:10:55;20.90;;;10.33;;
18748;SDS011;9503;53.560;10.246;2022-12-10T11:13:27;17.53;;;9.70;;
18748;SDS011;9503;53.560;10.246;2022-12-10T11:15:55;23.23;;;10.17;;
18748;SDS011;9503;53.560;10.246;2022-12-10T11:18:26;23.57;;;10.27;;
18748;SDS011;9503;53.560;10.246;2022-12-10T11:20:57;21.90;;;11.27;;
18748;SDS011;9503;53.560;10.246;2022-12-10T11:23:30;22.80;;;10.50;;
18748;SDS011;9503;53.560;10.246;2022-12-10T11:26:01;19.73;;;9.00;;
18748;SDS011;9503;53.560;10.246;2022-12-10T11:28:46;22.03;;;10.43;;
18748;SDS011;9503;53.560;10.246;2022-12-10T11:31:27;20.60;;;10.43;;
18748;SDS011;9503;53.560;10.246;2022-12-10T11:34:06;22.23;;;11.37;;
18748;SDS011;9503;53.560;10.246;2022-12-10T11:36:41;19.83;;;10.00;;
18748;SDS011;9503;53.560;10.246;2022-12-10T11:39:21;23.33;;;10.50;;
18748;SDS011;9503;53.560;10.246;2022-12-10T11:41:59;21.67;;;10.10;;
18748;SDS011;9503;53.560;10.246;2022-12-10T11:44:34;21.47;;;10.47;;
18748;SDS011;9503;53.560;10.246;2022-12-10T11:47:14;22.90;;;10.53;;
18748;SDS011;9503;53.560;10.246;2022-12-10T11:49:56;21.57;;;10.67;;
18748;SDS011;9503;53.560;10.246;2022-12-10T11:52:36;22.57;;;10.83;;
18748;SDS011;9503;53.560;10.246;2022-12-10T11:55:13;21.50;;;11.13;;
18748;SDS011;9503;53.560;10.246;2022-12-10T11:57:52;21.90;;;11.17;;
18748;SDS011;9503;53.560;10.246;2022-12-10T12:00:29;21.17;;;10.17;;
18748;SDS011;9503;53.560;10.246;2022-12-10T12:06:00;21.87;;;10.20;;
18748;SDS011;9503;53.560;10.246;2022-12-10T12:08:39;19.97;;;9.67;;
18748;SDS011;9503;53.560;10.246;2022-12-10T12:11:19;20.27;;;9.70;;
18748;SDS011;9503;53.560;10.246;2022-12-10T12:13:57;25.90;;;11.53;;
18748;SDS011;9503;53.560;10.246;2022-12-10T12:16:29;37.77;;;15.83;;
18748;SDS011;9503;53.560;10.246;2022-12-10T12:19:02;93.77;;;36.67;;
18748;SDS011;9503;53.560;10.246;2022-12-10T12:21:33;41.03;;;16.47;;
18748;SDS011;9503;53.560;10.246;2022-12-10T12:24:01;24.93;;;12.10;;
18748;SDS011;9503;53.560;10.246;2022-12-10T12:26:35;22.50;;;11.03;;
18748;SDS011;9503;53.560;10.246;2022-12-10T12:29:09;25.73;;;10.67;;
18748;SDS011;9503;53.560;10.246;2022-12-10T12:31:43;21.00;;;9.73;;
18748;SDS011;9503;53.560;10.246;2022-12-10T12:34:16;24.30;;;11.40;;
18748;SDS011;9503;53.560;10.246;2022-12-10T12:36:48;20.00;;;10.43;;
18748;SDS011;9503;53.560;10.246;2022-12-10T12:39:17;22.40;;;10.40;;
18748;SDS011;9503;53.560;10.246;2022-12-10T12:41:53;26.63;;;13.27;;
18748;SDS011;9503;53.560;10.246;2022-12-10T12:44:27;20.93;;;11.10;;
18748;SDS011;9503;53.560;10.246;2022-12-10T12:46:58;22.87;;;10.40;;
18748;SDS011;9503;53.560;10.246;2022-12-10T12:49:31;18.57;;;9.83;;
18748;SDS011;9503;53.560;10.246;2022-12-10T12:52:05;24.27;;;11.10;;
18748;SDS011;9503;53.560;10.246;2022-12-10T12:54:44;25.17;;;11.23;;
18748;SDS011;9503;53.560;10.246;2022-12-10T12:57:13;22.33;;;10.77;;
18748;SDS011;9503;53.560;10.246;2022-12-10T12:59:52;22.83;;;11.07;;
18748;SDS011;9503;53.560;10.246;2022-12-10T13:02:39;21.53;;;9.83;;
18748;SDS011;9503;53.560;10.246;2022-12-10T13:05:12;19.77;;;9.40;;
18748;SDS011;9503;53.560;10.246;2022-12-10T13:07:42;19.50;;;9.40;;
18748;SDS011;9503;53.560;10.246;2022-12-10T13:10:17;22.13;;;10.00;;
18748;SDS011;9503;53.560;10.246;2022-12-10T13:13:07;22.80;;;9.47;;
18748;SDS011;9503;53.560;10.246;2022-12-10T13:15:48;21.37;;;9.13;;
18748;SDS011;9503;53.560;10.246;2022-12-10T13:18:19;18.80;;;9.07;;
18748;SDS011;9503;53.560;10.246;2022-12-10T13:20:49;20.67;;;10.13;;
18748;SDS011;9503;53.560;10.246;2022-12-10T13:23:48;21.97;;;9.90;;
18748;SDS011;9503;53.560;10.246;2022-12-10T13:26:22;23.70;;;10.97;;
18748;SDS011;9503;53.560;10.246;2022-12-10T13:28:51;24.60;;;11.07;;
18748;SDS011;9503;53.560;10.246;2022-12-10T13:31:22;20.87;;;9.63;;
18748;SDS011;9503;53.560;10.246;2022-12-10T13:34:06;20.30;;;8.90;;
18748;SDS011;9503;53.560;10.246;2022-12-10T13:37:14;20.23;;;9.50;;
18748;SDS011;9503;53.560;10.246;2022-12-10T13:39:59;20.13;;;9.40;;
18748;SDS011;9503;53.560;10.246;2022-12-10T13:42:39;18.43;;;8.73;;
18748;SDS011;9503;53.560;10.246;2022-12-10T13:45:32;24.10;;;9.57;;
18748;SDS011;9503;53.560;10.246;2022-12-10T13:48:15;22.23;;;9.80;;
18748;SDS011;9503;53.560;10.246;2022-12-10T13:50:49;20.73;;;9.97;;
18748;SDS011;9503;53.560;10.246;2022-12-10T13:53:28;21.07;;;9.73;;
18748;SDS011;9503;53.560;10.246;2022-12-10T13:56:10;19.13;;;8.73;;
18748;SDS011;9503;53.560;10.246;2022-12-10T13:58:47;17.03;;;8.30;;
18748;SDS011;9503;53.560;10.246;2022-12-10T14:01:25;23.13;;;10.53;;
18748;SDS011;9503;53.560;10.246;2022-12-10T14:06:54;21.93;;;10.20;;
18748;SDS011;9503;53.560;10.246;2022-12-10T14:09:21;26.23;;;10.63;;
18748;SDS011;9503;53.560;10.246;2022-12-10T14:11:53;24.47;;;10.97;;
18748;SDS011;9503;53.560;10.246;2022-12-10T14:14:24;24.23;;;9.87;;
18748;SDS011;9503;53.560;10.246;2022-12-10T14:16:54;26.67;;;10.97;;
18748;SDS011;9503;53.560;10.246;2022-12-10T14:19:21;25.43;;;10.30;;
18748;SDS011;9503;53.560;10.246;2022-12-10T14:21:52;20.37;;;9.10;;
18748;SDS011;9503;53.560;10.246;2022-12-10T14:24:26;18.17;;;8.57;;
18748;SDS011;9503;53.560;10.246;2022-12-10T14:27:01;18.93;;;8.90;;
18748;SDS011;9503;53.560;10.246;2022-12-10T14:29:35;18.47;;;9.00;;
18748;SDS011;9503;53.560;10.246;2022-12-10T14:32:01;20.47;;;8.97;;
18748;SDS011;9503;53.560;10.246;2022-12-10T14:34:28;17.77;;;8.97;;
18748;SDS011;9503;53.560;10.246;2022-12-10T14:36:55;22.07;;;9.20;;
18748;SDS011;9503;53.560;10.246;2022-12-10T14:39:25;21.37;;;8.73;;
18748;SDS011;9503;53.560;10.246;2022-12-10T14:41:55;18.57;;;8.73;;
18748;SDS011;9503;53.560;10.246;2022-12-10T14:44:24;18.03;;;9.07;;
18748;SDS011;9503;53.560;10.246;2022-12-10T14:46:52;19.30;;;8.40;;
18748;SDS011;9503;53.560;10.246;2022-12-10T14:49:30;22.37;;;9.67;;
18748;SDS011;9503;53.560;10.246;2022-12-10T14:51:56;20.77;;;9.30;;
18748;SDS011;9503;53.560;10.246;2022-12-10T14:54:25;19.70;;;9.33;;